N2STN BIRK-BGBW
Flight info
| Callsign | N2STN |
|---|---|
| Flight time | 3h 37m |
| Altitude | 12000 |
| Route | LIMBU DCT 6425N DCT ROTIN DCT H6331 DCT H6239 DCT UMSUK |
| Aircraft | S22T/L-SDGRY/S |
Departure
| Time | 2026-05-06 13:25 |
|---|---|
| Airport | Reykjavík Domestic Airport (BIRK) |
Arrival
| Time | 2026-05-06 17:03 |
|---|---|
| Airport | Narsarsuaq Airport (BGBW) |
| Time | Latitude | Longitude | Altitude | Speed | Heading |
|---|---|---|---|---|---|
| 2026-05-06 13:07 | 64.13031 | -21.93483 | 43 ft | 0 kts | 355° |
| 2026-05-06 13:20 | 64.13044 | -21.93481 | 43 ft | 5 kts | 3° |
| 2026-05-06 13:20 | 64.13064 | -21.93512 | 43 ft | 4 kts | 303° |
| 2026-05-06 13:20 | 64.13059 | -21.93551 | 43 ft | 5 kts | 226° |
| 2026-05-06 13:21 | 64.13017 | -21.93564 | 43 ft | 9 kts | 188° |
| 2026-05-06 13:21 | 64.12953 | -21.93572 | 43 ft | 8 kts | 180° |
| 2026-05-06 13:21 | 64.12901 | -21.93507 | 42 ft | 7 kts | 178° |
| 2026-05-06 13:21 | 64.12855 | -21.93502 | 39 ft | 13 kts | 173° |
| 2026-05-06 13:22 | 64.12810 | -21.93495 | 40 ft | 2 kts | 178° |
| 2026-05-06 13:22 | 64.12771 | -21.93486 | 39 ft | 10 kts | 173° |
| 2026-05-06 13:22 | 64.12673 | -21.93466 | 34 ft | 17 kts | 175° |
| 2026-05-06 13:22 | 64.12562 | -21.93447 | 32 ft | 15 kts | 176° |
| 2026-05-06 13:23 | 64.12462 | -21.93422 | 28 ft | 10 kts | 199° |
| 2026-05-06 13:23 | 64.12447 | -21.93504 | 27 ft | 5 kts | 258° |
| 2026-05-06 13:23 | 64.12438 | -21.93618 | 27 ft | 7 kts | 256° |
| 2026-05-06 13:23 | 64.12449 | -21.93670 | 28 ft | 4 kts | 352° |
| 2026-05-06 13:24 | 64.12455 | -21.93672 | 29 ft | 0 kts | 356° |
| 2026-05-06 13:24 | 64.12456 | -21.93672 | 29 ft | 1 kts | 356° |
| 2026-05-06 13:24 | 64.12618 | -21.93704 | 34 ft | 49 kts | 355° |
| 2026-05-06 13:24 | 64.13091 | -21.93819 | 69 ft | 81 kts | 355° |
| 2026-05-06 13:25 | 64.13650 | -21.93860 | 255 ft | 79 kts | 357° |
| 2026-05-06 13:25 | 64.14143 | -21.94143 | 423 ft | 79 kts | 309° |
| 2026-05-06 13:25 | 64.14285 | -21.95343 | 550 ft | 79 kts | 269° |
| 2026-05-06 13:25 | 64.14274 | -21.96544 | 790 ft | 72 kts | 264° |
| 2026-05-06 13:26 | 64.14244 | -21.97639 | 1246 ft | 70 kts | 263° |
| 2026-05-06 13:26 | 64.14065 | -21.98829 | 1652 ft | 81 kts | 210° |
| 2026-05-06 13:26 | 64.13868 | -21.98889 | 1388 ft | 70 kts | 190° |
| 2026-05-06 13:26 | 64.13031 | -21.93483 | 43 ft | 3 kts | 355° |
| 2026-05-06 13:34 | 64.13055 | -21.93506 | 43 ft | 6 kts | 303° |
| 2026-05-06 13:34 | 64.13037 | -21.93562 | 43 ft | 7 kts | 186° |
| 2026-05-06 13:34 | 64.12965 | -21.93565 | 43 ft | 12 kts | 176° |
| 2026-05-06 13:34 | 64.12907 | -21.93512 | 42 ft | 8 kts | 161° |
| 2026-05-06 13:35 | 64.12824 | -21.93494 | 39 ft | 15 kts | 175° |
| 2026-05-06 13:35 | 64.12721 | -21.93477 | 36 ft | 14 kts | 174° |
| 2026-05-06 13:35 | 64.12634 | -21.93462 | 34 ft | 13 kts | 174° |
| 2026-05-06 13:35 | 64.12556 | -21.93453 | 32 ft | 11 kts | 191° |
| 2026-05-06 13:36 | 64.12476 | -21.93429 | 28 ft | 10 kts | 180° |
| 2026-05-06 13:36 | 64.12445 | -21.93533 | 26 ft | 9 kts | 268° |
| 2026-05-06 13:36 | 64.12440 | -21.93662 | 28 ft | 6 kts | 285° |
| 2026-05-06 13:36 | 64.12445 | -21.93670 | 28 ft | 0 kts | 353° |
| 2026-05-06 13:38 | 64.12459 | -21.93676 | 29 ft | 14 kts | 352° |
| 2026-05-06 13:38 | 64.12824 | -21.93735 | 72 ft | 83 kts | 352° |
| 2026-05-06 13:38 | 64.13434 | -21.93903 | 396 ft | 92 kts | 347° |
| 2026-05-06 13:38 | 64.14009 | -21.94512 | 720 ft | 95 kts | 310° |
| 2026-05-06 13:39 | 64.14344 | -21.95738 | 1109 ft | 95 kts | 279° |
| 2026-05-06 13:39 | 64.14218 | -21.97299 | 1502 ft | 104 kts | 242° |
| 2026-05-06 13:39 | 64.13798 | -21.98655 | 1939 ft | 106 kts | 253° |
| 2026-05-06 13:39 | 64.13715 | -22.00321 | 2392 ft | 106 kts | 262° |
| 2026-05-06 13:40 | 64.13622 | -22.01994 | 2842 ft | 106 kts | 263° |
| 2026-05-06 13:40 | 64.13534 | -22.03672 | 3289 ft | 107 kts | 263° |
| 2026-05-06 13:40 | 64.13450 | -22.05360 | 3739 ft | 107 kts | 263° |
| 2026-05-06 13:40 | 64.13370 | -22.07058 | 4185 ft | 107 kts | 263° |
| 2026-05-06 13:41 | 64.13290 | -22.08760 | 4626 ft | 108 kts | 263° |
| 2026-05-06 13:41 | 64.13021 | -22.10356 | 5078 ft | 107 kts | 240° |
| 2026-05-06 13:41 | 64.12748 | -22.11835 | 5583 ft | 105 kts | 256° |
| 2026-05-06 13:41 | 64.12612 | -22.13524 | 6032 ft | 105 kts | 257° |
| 2026-05-06 13:42 | 64.12406 | -22.15159 | 6464 ft | 109 kts | 247° |
| 2026-05-06 13:42 | 64.11893 | -22.16438 | 6897 ft | 111 kts | 232° |
| 2026-05-06 13:42 | 64.11767 | -22.18136 | 7327 ft | 111 kts | 273° |
| 2026-05-06 13:42 | 64.11750 | -22.19879 | 7781 ft | 111 kts | 266° |
| 2026-05-06 13:43 | 64.11721 | -22.21659 | 8236 ft | 112 kts | 264° |
| 2026-05-06 13:43 | 64.11691 | -22.23452 | 8685 ft | 113 kts | 265° |
| 2026-05-06 13:43 | 64.11668 | -22.25258 | 9137 ft | 114 kts | 266° |
| 2026-05-06 13:43 | 64.11650 | -22.27083 | 9595 ft | 115 kts | 266° |
| 2026-05-06 13:44 | 64.11636 | -22.28920 | 10064 ft | 116 kts | 266° |
| 2026-05-06 13:44 | 64.11624 | -22.30767 | 10522 ft | 117 kts | 266° |
| 2026-05-06 13:44 | 64.11604 | -22.32630 | 10994 ft | 117 kts | 262° |
| 2026-05-06 13:44 | 64.11523 | -22.34492 | 11463 ft | 118 kts | 263° |
| 2026-05-06 13:45 | 64.11465 | -22.36371 | 11934 ft | 119 kts | 263° |
| 2026-05-06 13:45 | 64.11364 | -22.40158 | 12879 ft | 120 kts | 264° |
| 2026-05-06 13:45 | 64.11316 | -22.42062 | 13351 ft | 120 kts | 264° |
| 2026-05-06 13:46 | 64.11269 | -22.43979 | 13824 ft | 121 kts | 264° |
| 2026-05-06 13:46 | 64.11220 | -22.45901 | 14297 ft | 121 kts | 264° |
| 2026-05-06 13:46 | 64.11171 | -22.47831 | 14770 ft | 122 kts | 264° |
| 2026-05-06 13:46 | 64.11122 | -22.49772 | 15244 ft | 122 kts | 263° |
| 2026-05-06 13:47 | 64.11073 | -22.51716 | 15716 ft | 123 kts | 264° |
| 2026-05-06 13:47 | 64.11017 | -22.53739 | 15999 ft | 140 kts | 263° |
| 2026-05-06 13:47 | 64.10948 | -22.56177 | 16014 ft | 166 kts | 264° |
| 2026-05-06 13:47 | 64.10872 | -22.58951 | 16013 ft | 182 kts | 264° |
| 2026-05-06 13:48 | 64.10792 | -22.61915 | 16012 ft | 191 kts | 264° |
| 2026-05-06 13:48 | 64.10710 | -22.64994 | 16011 ft | 196 kts | 264° |
| 2026-05-06 13:48 | 64.10626 | -22.68137 | 16008 ft | 199 kts | 264° |
| 2026-05-06 13:48 | 64.10541 | -22.71319 | 16009 ft | 201 kts | 264° |
| 2026-05-06 13:49 | 64.10454 | -22.74521 | 16005 ft | 202 kts | 264° |
| 2026-05-06 13:49 | 64.10367 | -22.77737 | 16000 ft | 203 kts | 264° |
| 2026-05-06 13:49 | 64.10278 | -22.80960 | 15994 ft | 203 kts | 264° |
| 2026-05-06 13:49 | 64.10189 | -22.84144 | 15992 ft | 203 kts | 264° |
| 2026-05-06 13:50 | 64.10099 | -22.87372 | 15992 ft | 203 kts | 264° |
| 2026-05-06 13:50 | 64.10007 | -22.90604 | 15990 ft | 203 kts | 264° |
| 2026-05-06 13:50 | 64.09915 | -22.93833 | 15989 ft | 204 kts | 264° |
| 2026-05-06 13:50 | 64.09822 | -22.97059 | 15990 ft | 203 kts | 264° |
| 2026-05-06 13:51 | 64.09728 | -23.00283 | 15990 ft | 203 kts | 264° |
| 2026-05-06 13:51 | 64.09635 | -23.03513 | 15991 ft | 203 kts | 264° |
| 2026-05-06 13:51 | 64.09539 | -23.06737 | 15992 ft | 203 kts | 264° |
| 2026-05-06 13:51 | 64.09443 | -23.09966 | 15992 ft | 203 kts | 264° |
| 2026-05-06 13:52 | 64.09324 | -23.13183 | 15994 ft | 203 kts | 261° |
| 2026-05-06 13:52 | 64.09178 | -23.16402 | 15989 ft | 203 kts | 263° |
| 2026-05-06 13:52 | 64.09043 | -23.19619 | 15990 ft | 203 kts | 262° |
| 2026-05-06 13:52 | 64.08903 | -23.22825 | 15990 ft | 203 kts | 262° |
| 2026-05-06 13:53 | 64.08806 | -23.24996 | 15989 ft | 203 kts | 262° |
| 2026-05-06 13:53 | 64.08665 | -23.28177 | 15990 ft | 203 kts | 262° |
| 2026-05-06 13:53 | 64.08519 | -23.31436 | 15990 ft | 203 kts | 262° |
| 2026-05-06 13:53 | 64.08392 | -23.34656 | 15990 ft | 203 kts | 262° |
| 2026-05-06 13:54 | 64.08271 | -23.37830 | 15993 ft | 203 kts | 265° |
| 2026-05-06 13:54 | 64.08145 | -23.41055 | 15993 ft | 204 kts | 264° |
| 2026-05-06 13:54 | 64.07994 | -23.44274 | 15993 ft | 204 kts | 263° |
| 2026-05-06 13:54 | 64.07837 | -23.47498 | 15993 ft | 204 kts | 263° |
| 2026-05-06 13:55 | 64.07683 | -23.50731 | 15993 ft | 204 kts | 263° |
| 2026-05-06 13:55 | 64.07533 | -23.53956 | 15992 ft | 204 kts | 263° |
| 2026-05-06 13:55 | 64.07380 | -23.57181 | 15992 ft | 204 kts | 263° |
| 2026-05-06 13:55 | 64.07228 | -23.60412 | 15972 ft | 205 kts | 263° |
| 2026-05-06 13:56 | 64.07074 | -23.63685 | 15900 ft | 207 kts | 263° |
| 2026-05-06 13:56 | 64.06921 | -23.66898 | 15995 ft | 202 kts | 263° |
| 2026-05-06 13:56 | 64.06768 | -23.70094 | 15993 ft | 203 kts | 263° |
| 2026-05-06 13:56 | 64.06615 | -23.73308 | 15992 ft | 204 kts | 263° |
| 2026-05-06 13:57 | 64.06460 | -23.76525 | 15992 ft | 204 kts | 263° |
| 2026-05-06 13:57 | 64.06305 | -23.79746 | 15992 ft | 204 kts | 263° |
| 2026-05-06 13:57 | 64.06149 | -23.82959 | 15993 ft | 204 kts | 263° |
| 2026-05-06 13:57 | 64.05993 | -23.86184 | 15992 ft | 204 kts | 263° |
| 2026-05-06 13:58 | 64.05835 | -23.89406 | 15992 ft | 204 kts | 263° |
| 2026-05-06 13:58 | 64.05677 | -23.92621 | 15992 ft | 204 kts | 263° |
| 2026-05-06 13:58 | 64.05518 | -23.95845 | 15992 ft | 204 kts | 263° |
| 2026-05-06 13:58 | 64.05358 | -23.99065 | 15993 ft | 204 kts | 263° |
| 2026-05-06 13:59 | 64.05198 | -24.02286 | 15992 ft | 204 kts | 263° |
| 2026-05-06 13:59 | 64.05037 | -24.05498 | 15992 ft | 204 kts | 263° |
| 2026-05-06 13:59 | 64.04875 | -24.08721 | 15993 ft | 204 kts | 263° |
| 2026-05-06 13:59 | 64.04715 | -24.11899 | 15992 ft | 204 kts | 263° |
| 2026-05-06 14:00 | 64.04549 | -24.15159 | 15992 ft | 204 kts | 263° |
| 2026-05-06 14:00 | 64.04385 | -24.18379 | 15992 ft | 204 kts | 263° |
| 2026-05-06 14:00 | 64.04221 | -24.21596 | 15993 ft | 204 kts | 263° |
| 2026-05-06 14:00 | 64.04056 | -24.24812 | 15992 ft | 204 kts | 263° |
| 2026-05-06 14:01 | 64.03892 | -24.27985 | 15992 ft | 204 kts | 263° |
| 2026-05-06 14:01 | 64.03723 | -24.31242 | 15992 ft | 204 kts | 263° |
| 2026-05-06 14:01 | 64.03555 | -24.34458 | 15993 ft | 204 kts | 263° |
| 2026-05-06 14:01 | 64.03390 | -24.37630 | 15992 ft | 204 kts | 263° |
| 2026-05-06 14:02 | 64.03221 | -24.40845 | 15992 ft | 204 kts | 263° |
| 2026-05-06 14:02 | 64.03052 | -24.44064 | 15993 ft | 204 kts | 263° |
| 2026-05-06 14:02 | 64.02882 | -24.47272 | 15992 ft | 204 kts | 263° |
| 2026-05-06 14:02 | 64.02710 | -24.50485 | 15993 ft | 204 kts | 262° |
| 2026-05-06 14:03 | 64.02539 | -24.53700 | 15992 ft | 204 kts | 263° |
| 2026-05-06 14:03 | 64.02367 | -24.56911 | 15992 ft | 204 kts | 262° |
| 2026-05-06 14:03 | 64.02193 | -24.60125 | 15988 ft | 204 kts | 262° |
| 2026-05-06 14:03 | 64.02018 | -24.63386 | 16983 ft | 215 kts | 266° |
| 2026-05-06 14:04 | 64.01827 | -24.66864 | 16854 ft | 226 kts | 266° |
| 2026-05-06 14:04 | 64.01632 | -24.70472 | 16721 ft | 232 kts | 268° |
| 2026-05-06 14:04 | 64.01431 | -24.74158 | 16592 ft | 236 kts | 266° |
| 2026-05-06 14:04 | 64.01225 | -24.77897 | 16467 ft | 238 kts | 267° |
| 2026-05-06 14:05 | 64.01016 | -24.81648 | 16335 ft | 240 kts | 267° |
| 2026-05-06 14:05 | 64.00807 | -24.85387 | 16310 ft | 236 kts | 267° |
| 2026-05-06 14:05 | 64.00600 | -24.89080 | 16309 ft | 233 kts | 266° |
| 2026-05-06 14:05 | 64.00394 | -24.92729 | 16310 ft | 232 kts | 267° |
| 2026-05-06 14:06 | 64.00189 | -24.96354 | 16309 ft | 230 kts | 266° |
| 2026-05-06 14:06 | 63.99988 | -24.99957 | 16306 ft | 228 kts | 267° |
| 2026-05-06 14:06 | 63.99877 | -25.03555 | 16300 ft | 227 kts | 271° |
| 2026-05-06 14:06 | 63.99765 | -25.07149 | 16301 ft | 228 kts | 270° |
| 2026-05-06 14:07 | 63.99648 | -25.10748 | 16301 ft | 227 kts | 270° |
| 2026-05-06 14:07 | 63.99531 | -25.14343 | 16301 ft | 227 kts | 271° |
| 2026-05-06 14:07 | 63.99416 | -25.17942 | 16302 ft | 228 kts | 271° |
| 2026-05-06 14:07 | 63.99299 | -25.21554 | 16302 ft | 229 kts | 270° |
| 2026-05-06 14:08 | 63.99183 | -25.25119 | 16311 ft | 228 kts | 269° |
| 2026-05-06 14:08 | 63.99064 | -25.28708 | 16309 ft | 228 kts | 271° |
| 2026-05-06 14:08 | 63.98945 | -25.32316 | 16312 ft | 228 kts | 269° |
| 2026-05-06 14:08 | 63.98825 | -25.35898 | 16311 ft | 227 kts | 270° |
| 2026-05-06 14:09 | 63.98704 | -25.39489 | 16310 ft | 227 kts | 270° |
| 2026-05-06 14:09 | 63.98583 | -25.43072 | 16308 ft | 227 kts | 270° |
| 2026-05-06 14:09 | 63.98459 | -25.46659 | 16311 ft | 228 kts | 269° |
| 2026-05-06 14:09 | 63.98335 | -25.50252 | 16310 ft | 227 kts | 270° |
| 2026-05-06 14:10 | 63.98211 | -25.53839 | 16312 ft | 227 kts | 270° |
| 2026-05-06 14:10 | 63.98086 | -25.57436 | 16312 ft | 228 kts | 270° |
| 2026-05-06 14:10 | 63.97959 | -25.61048 | 16312 ft | 229 kts | 269° |
| 2026-05-06 14:10 | 63.97831 | -25.64642 | 16313 ft | 228 kts | 269° |
| 2026-05-06 14:11 | 63.97703 | -25.68239 | 16293 ft | 228 kts | 270° |
| 2026-05-06 14:11 | 63.97575 | -25.71821 | 16323 ft | 227 kts | 269° |
| 2026-05-06 14:11 | 63.97445 | -25.75390 | 16323 ft | 226 kts | 269° |
| 2026-05-06 14:11 | 63.97315 | -25.78943 | 16321 ft | 226 kts | 270° |
| 2026-05-06 14:12 | 63.97184 | -25.82511 | 16319 ft | 226 kts | 270° |
| 2026-05-06 14:12 | 63.97054 | -25.86083 | 16322 ft | 226 kts | 269° |
| 2026-05-06 14:12 | 63.96921 | -25.89652 | 16320 ft | 226 kts | 270° |
| 2026-05-06 14:12 | 63.96787 | -25.93220 | 16323 ft | 226 kts | 270° |
| 2026-05-06 14:13 | 63.96652 | -25.96793 | 16323 ft | 226 kts | 269° |
| 2026-05-06 14:13 | 63.96517 | -26.00366 | 16325 ft | 226 kts | 269° |
| 2026-05-06 14:13 | 63.96381 | -26.03935 | 16323 ft | 226 kts | 270° |
| 2026-05-06 14:13 | 63.96244 | -26.07503 | 16323 ft | 226 kts | 269° |
| 2026-05-06 14:14 | 63.96105 | -26.11068 | 16323 ft | 226 kts | 269° |
| 2026-05-06 14:14 | 63.95967 | -26.14622 | 16322 ft | 225 kts | 269° |
| 2026-05-06 14:14 | 63.95828 | -26.18166 | 16321 ft | 225 kts | 270° |
| 2026-05-06 14:14 | 63.95688 | -26.21721 | 16324 ft | 226 kts | 269° |
| 2026-05-06 14:15 | 63.95548 | -26.25276 | 16325 ft | 226 kts | 270° |
| 2026-05-06 14:15 | 63.95405 | -26.28831 | 16327 ft | 226 kts | 270° |
| 2026-05-06 14:15 | 63.95263 | -26.32402 | 16325 ft | 227 kts | 270° |
| 2026-05-06 14:15 | 63.95119 | -26.35981 | 16326 ft | 227 kts | 269° |
| 2026-05-06 14:16 | 63.94974 | -26.39544 | 16326 ft | 226 kts | 270° |
| 2026-05-06 14:16 | 63.94827 | -26.43117 | 16327 ft | 226 kts | 269° |
| 2026-05-06 14:16 | 63.94682 | -26.46670 | 16327 ft | 226 kts | 269° |
| 2026-05-06 14:16 | 63.94534 | -26.50228 | 16326 ft | 226 kts | 269° |
| 2026-05-06 14:17 | 63.94385 | -26.53787 | 16327 ft | 226 kts | 269° |
| 2026-05-06 14:17 | 63.94237 | -26.57340 | 16334 ft | 226 kts | 269° |
| 2026-05-06 14:17 | 63.94087 | -26.60894 | 16335 ft | 226 kts | 269° |
| 2026-05-06 14:17 | 63.93937 | -26.64454 | 16334 ft | 226 kts | 269° |
| 2026-05-06 14:18 | 63.93784 | -26.68019 | 16338 ft | 226 kts | 269° |
| 2026-05-06 14:18 | 63.93632 | -26.71583 | 16337 ft | 227 kts | 270° |
| 2026-05-06 14:18 | 63.93479 | -26.75153 | 16339 ft | 226 kts | 269° |
| 2026-05-06 14:18 | 63.93321 | -26.78703 | 16338 ft | 226 kts | 269° |
| 2026-05-06 14:19 | 63.93168 | -26.82259 | 16334 ft | 226 kts | 270° |
| 2026-05-06 14:19 | 63.93014 | -26.85813 | 16335 ft | 225 kts | 268° |
| 2026-05-06 14:19 | 63.92856 | -26.89350 | 16333 ft | 225 kts | 269° |
| 2026-05-06 14:19 | 63.92699 | -26.92888 | 16343 ft | 225 kts | 269° |
| 2026-05-06 14:20 | 63.92542 | -26.96435 | 16344 ft | 226 kts | 268° |
| 2026-05-06 14:20 | 63.92382 | -26.99975 | 16343 ft | 225 kts | 269° |
| 2026-05-06 14:20 | 63.92221 | -27.03525 | 16341 ft | 226 kts | 269° |
| 2026-05-06 14:20 | 63.92061 | -27.07075 | 16341 ft | 226 kts | 269° |
| 2026-05-06 14:21 | 63.91900 | -27.10633 | 16344 ft | 226 kts | 268° |
| 2026-05-06 14:21 | 63.91736 | -27.14184 | 16343 ft | 226 kts | 269° |
| 2026-05-06 14:21 | 63.91505 | -27.17730 | 16347 ft | 228 kts | 262° |
| 2026-05-06 14:21 | 63.91162 | -27.21241 | 16347 ft | 228 kts | 261° |
| 2026-05-06 14:22 | 63.90830 | -27.24712 | 16348 ft | 227 kts | 262° |
| 2026-05-06 14:22 | 63.90500 | -27.28221 | 16345 ft | 228 kts | 262° |
| 2026-05-06 14:22 | 63.90167 | -27.31741 | 16345 ft | 228 kts | 262° |
| 2026-05-06 14:22 | 63.89833 | -27.35258 | 16343 ft | 228 kts | 262° |
| 2026-05-06 14:23 | 63.89497 | -27.38783 | 16343 ft | 229 kts | 262° |
| 2026-05-06 14:23 | 63.89160 | -27.42315 | 16344 ft | 228 kts | 262° |
| 2026-05-06 14:23 | 63.88823 | -27.45830 | 16341 ft | 228 kts | 262° |
| 2026-05-06 14:23 | 63.88483 | -27.49347 | 16342 ft | 228 kts | 261° |
| 2026-05-06 14:24 | 63.88145 | -27.52862 | 16344 ft | 228 kts | 262° |
| 2026-05-06 14:24 | 63.87808 | -27.56364 | 16348 ft | 227 kts | 262° |
| 2026-05-06 14:24 | 63.87468 | -27.59876 | 16354 ft | 227 kts | 261° |
| 2026-05-06 14:24 | 63.87127 | -27.63373 | 16352 ft | 228 kts | 262° |
| 2026-05-06 14:25 | 63.86783 | -27.66896 | 16360 ft | 229 kts | 262° |
| 2026-05-06 14:25 | 63.86441 | -27.70411 | 16362 ft | 228 kts | 261° |
| 2026-05-06 14:25 | 63.86096 | -27.73926 | 16360 ft | 228 kts | 261° |
| 2026-05-06 14:25 | 63.85751 | -27.77430 | 16354 ft | 228 kts | 261° |
| 2026-05-06 14:26 | 63.85406 | -27.80928 | 16351 ft | 227 kts | 261° |
| 2026-05-06 14:26 | 63.85059 | -27.84431 | 16349 ft | 228 kts | 262° |
| 2026-05-06 14:26 | 63.84714 | -27.87936 | 16353 ft | 228 kts | 261° |
| 2026-05-06 14:26 | 63.84367 | -27.91435 | 16359 ft | 228 kts | 262° |
| 2026-05-06 14:27 | 63.84018 | -27.94933 | 16362 ft | 228 kts | 262° |
| 2026-05-06 14:27 | 63.83667 | -27.98441 | 16354 ft | 228 kts | 261° |
| 2026-05-06 14:27 | 63.83316 | -28.01937 | 16363 ft | 228 kts | 262° |
| 2026-05-06 14:27 | 63.82963 | -28.05455 | 16354 ft | 228 kts | 261° |
| 2026-05-06 14:28 | 63.82613 | -28.08944 | 16353 ft | 227 kts | 261° |
| 2026-05-06 14:28 | 63.82260 | -28.12433 | 16355 ft | 227 kts | 261° |
| 2026-05-06 14:28 | 63.81908 | -28.15921 | 16357 ft | 228 kts | 261° |
| 2026-05-06 14:28 | 63.81553 | -28.19419 | 16355 ft | 228 kts | 262° |
| 2026-05-06 14:29 | 63.81196 | -28.22925 | 16352 ft | 229 kts | 261° |
| 2026-05-06 14:29 | 63.80837 | -28.26433 | 16363 ft | 229 kts | 260° |
| 2026-05-06 14:29 | 63.80479 | -28.29940 | 16363 ft | 229 kts | 261° |
| 2026-05-06 14:29 | 63.80120 | -28.33448 | 16360 ft | 228 kts | 260° |
| 2026-05-06 14:30 | 63.79761 | -28.36949 | 16361 ft | 228 kts | 260° |
| 2026-05-06 14:30 | 63.79400 | -28.40435 | 16358 ft | 229 kts | 261° |
| 2026-05-06 14:30 | 63.79039 | -28.43935 | 16362 ft | 228 kts | 259° |
| 2026-05-06 14:30 | 63.78673 | -28.47440 | 16364 ft | 229 kts | 261° |
| 2026-05-06 14:31 | 63.78307 | -28.50976 | 16362 ft | 231 kts | 262° |
| 2026-05-06 14:31 | 63.77942 | -28.54506 | 16365 ft | 230 kts | 259° |
| 2026-05-06 14:31 | 63.77572 | -28.58029 | 16363 ft | 230 kts | 259° |
| 2026-05-06 14:31 | 63.77204 | -28.61547 | 16366 ft | 229 kts | 259° |
| 2026-05-06 14:32 | 63.76837 | -28.65040 | 16366 ft | 228 kts | 261° |
| 2026-05-06 14:32 | 63.76470 | -28.68527 | 16362 ft | 229 kts | 261° |
| 2026-05-06 14:32 | 63.76102 | -28.72026 | 16365 ft | 229 kts | 259° |
| 2026-05-06 14:32 | 63.75731 | -28.75529 | 16361 ft | 230 kts | 261° |
| 2026-05-06 14:33 | 63.75360 | -28.79050 | 16367 ft | 231 kts | 261° |
| 2026-05-06 14:33 | 63.74984 | -28.82577 | 16370 ft | 230 kts | 259° |
| 2026-05-06 14:33 | 63.74607 | -28.86085 | 16377 ft | 230 kts | 259° |
| 2026-05-06 14:33 | 63.74235 | -28.89594 | 16378 ft | 229 kts | 259° |
| 2026-05-06 14:34 | 63.73862 | -28.93074 | 16379 ft | 227 kts | 259° |
| 2026-05-06 14:34 | 63.73486 | -28.96567 | 16376 ft | 229 kts | 259° |
| 2026-05-06 14:34 | 63.73111 | -29.00063 | 16377 ft | 229 kts | 259° |
| 2026-05-06 14:34 | 63.72731 | -29.03564 | 16375 ft | 231 kts | 261° |
| 2026-05-06 14:35 | 63.72353 | -29.07083 | 16375 ft | 231 kts | 261° |
| 2026-05-06 14:35 | 63.71973 | -29.10594 | 16383 ft | 229 kts | 259° |
| 2026-05-06 14:35 | 63.71590 | -29.14098 | 16385 ft | 229 kts | 258° |
| 2026-05-06 14:35 | 63.71210 | -29.17578 | 16382 ft | 229 kts | 260° |
| 2026-05-06 14:36 | 63.70831 | -29.21061 | 16387 ft | 228 kts | 259° |
| 2026-05-06 14:36 | 63.70453 | -29.24498 | 16385 ft | 229 kts | 259° |
| 2026-05-06 14:36 | 63.70072 | -29.27973 | 16386 ft | 229 kts | 259° |
| 2026-05-06 14:36 | 63.69681 | -29.31528 | 16380 ft | 232 kts | 260° |
| 2026-05-06 14:37 | 63.69296 | -29.35008 | 16383 ft | 231 kts | 259° |
| 2026-05-06 14:37 | 63.68908 | -29.38505 | 16382 ft | 230 kts | 260° |
| 2026-05-06 14:37 | 63.68522 | -29.42005 | 16386 ft | 229 kts | 258° |
| 2026-05-06 14:37 | 63.68130 | -29.45515 | 16385 ft | 227 kts | 258° |
| 2026-05-06 14:38 | 63.67747 | -29.48923 | 16385 ft | 228 kts | 260° |
| 2026-05-06 14:38 | 63.67486 | -29.51271 | 16387 ft | 229 kts | 258° |
| 2026-05-06 14:38 | 63.66971 | -29.55875 | 16385 ft | 230 kts | 258° |
| 2026-05-06 14:38 | 63.66581 | -29.59354 | 16382 ft | 231 kts | 260° |
| 2026-05-06 14:39 | 63.66187 | -29.62867 | 16383 ft | 230 kts | 257° |
| 2026-05-06 14:39 | 63.65795 | -29.66347 | 16382 ft | 230 kts | 258° |
| 2026-05-06 14:39 | 63.65534 | -29.68667 | 16383 ft | 230 kts | 258° |
| 2026-05-06 14:39 | 63.65140 | -29.72122 | 16391 ft | 227 kts | 257° |
| 2026-05-06 14:40 | 63.64748 | -29.75562 | 16391 ft | 228 kts | 259° |
| 2026-05-06 14:40 | 63.64354 | -29.79025 | 16391 ft | 228 kts | 259° |
| 2026-05-06 14:40 | 63.63957 | -29.82500 | 16387 ft | 230 kts | 260° |
| 2026-05-06 14:40 | 63.63559 | -29.86002 | 16393 ft | 230 kts | 257° |
| 2026-05-06 14:41 | 63.63161 | -29.89476 | 16394 ft | 229 kts | 258° |
| 2026-05-06 14:41 | 63.62761 | -29.92944 | 16391 ft | 229 kts | 258° |
| 2026-05-06 14:41 | 63.62365 | -29.96382 | 16395 ft | 227 kts | 257° |
| 2026-05-06 14:41 | 63.61967 | -29.99821 | 16395 ft | 225 kts | 257° |
| 2026-05-06 14:42 | 63.61573 | -30.03237 | 16392 ft | 227 kts | 257° |
| 2026-05-06 14:42 | 63.61175 | -30.06660 | 16393 ft | 227 kts | 257° |
| 2026-05-06 14:42 | 63.60773 | -30.10110 | 16397 ft | 228 kts | 258° |
| 2026-05-06 14:42 | 63.60371 | -30.13570 | 16403 ft | 229 kts | 257° |
| 2026-05-06 14:43 | 63.59966 | -30.17020 | 16404 ft | 227 kts | 257° |
| 2026-05-06 14:43 | 63.59563 | -30.20456 | 16403 ft | 227 kts | 257° |
| 2026-05-06 14:43 | 63.59164 | -30.23872 | 16404 ft | 225 kts | 257° |
| 2026-05-06 14:43 | 63.58763 | -30.27277 | 16403 ft | 225 kts | 258° |
| 2026-05-06 14:44 | 63.58360 | -30.30695 | 16404 ft | 226 kts | 258° |
| 2026-05-06 14:44 | 63.57957 | -30.34109 | 16401 ft | 227 kts | 258° |
| 2026-05-06 14:44 | 63.57550 | -30.37534 | 16400 ft | 227 kts | 258° |
| 2026-05-06 14:45 | 63.56734 | -30.44395 | 16407 ft | 228 kts | 258° |
| 2026-05-06 14:45 | 63.56325 | -30.47827 | 16410 ft | 227 kts | 256° |
| 2026-05-06 14:45 | 63.55920 | -30.51223 | 16411 ft | 224 kts | 256° |
| 2026-05-06 14:45 | 63.55512 | -30.54620 | 16405 ft | 226 kts | 258° |
| 2026-05-06 14:46 | 63.55104 | -30.58030 | 16406 ft | 226 kts | 256° |
| 2026-05-06 14:46 | 63.54692 | -30.61441 | 16409 ft | 228 kts | 258° |
| 2026-05-06 14:46 | 63.54281 | -30.64862 | 16410 ft | 227 kts | 257° |
| 2026-05-06 14:46 | 63.53869 | -30.68270 | 16413 ft | 225 kts | 256° |
| 2026-05-06 14:47 | 63.53455 | -30.71672 | 16414 ft | 225 kts | 256° |
| 2026-05-06 14:47 | 63.53043 | -30.75056 | 16413 ft | 224 kts | 256° |
| 2026-05-06 14:47 | 63.52636 | -30.78418 | 16414 ft | 223 kts | 256° |
| 2026-05-06 14:47 | 63.52224 | -30.81787 | 16411 ft | 224 kts | 256° |
| 2026-05-06 14:48 | 63.51811 | -30.85148 | 16408 ft | 224 kts | 257° |
| 2026-05-06 14:48 | 63.51398 | -30.88534 | 16408 ft | 226 kts | 257° |
| 2026-05-06 14:48 | 63.50987 | -30.91890 | 16408 ft | 226 kts | 257° |
| 2026-05-06 14:48 | 63.50570 | -30.95277 | 16408 ft | 226 kts | 257° |
| 2026-05-06 14:49 | 63.50147 | -30.98707 | 16416 ft | 225 kts | 256° |
| 2026-05-06 14:49 | 63.49793 | -31.02049 | 16411 ft | 223 kts | 261° |
| 2026-05-06 14:49 | 63.49483 | -31.05445 | 16410 ft | 223 kts | 261° |
| 2026-05-06 14:49 | 63.49159 | -31.08853 | 16413 ft | 223 kts | 259° |
| 2026-05-06 14:50 | 63.48836 | -31.12252 | 16405 ft | 224 kts | 261° |
| 2026-05-06 14:50 | 63.48516 | -31.15668 | 16408 ft | 225 kts | 261° |
| 2026-05-06 14:50 | 63.48191 | -31.19101 | 16409 ft | 226 kts | 259° |
| 2026-05-06 14:50 | 63.47865 | -31.22519 | 16414 ft | 225 kts | 261° |
| 2026-05-06 14:51 | 63.47542 | -31.25934 | 16411 ft | 225 kts | 260° |
| 2026-05-06 14:51 | 63.47219 | -31.29329 | 16428 ft | 222 kts | 259° |
| 2026-05-06 14:51 | 63.46896 | -31.32699 | 16425 ft | 221 kts | 259° |
| 2026-05-06 14:51 | 63.46571 | -31.36068 | 16424 ft | 223 kts | 259° |
| 2026-05-06 14:52 | 63.46247 | -31.39453 | 16421 ft | 222 kts | 259° |
| 2026-05-06 14:52 | 63.45920 | -31.42831 | 16421 ft | 223 kts | 261° |
| 2026-05-06 14:52 | 63.45594 | -31.46216 | 16421 ft | 223 kts | 260° |
| 2026-05-06 14:52 | 63.45267 | -31.49596 | 16421 ft | 222 kts | 260° |
| 2026-05-06 14:53 | 63.44939 | -31.52958 | 16421 ft | 222 kts | 261° |
| 2026-05-06 14:53 | 63.44610 | -31.56328 | 16428 ft | 221 kts | 260° |
| 2026-05-06 14:53 | 63.44283 | -31.59682 | 16429 ft | 220 kts | 259° |
| 2026-05-06 14:53 | 63.43955 | -31.63030 | 16427 ft | 221 kts | 259° |
| 2026-05-06 14:54 | 63.43627 | -31.66386 | 16426 ft | 221 kts | 259° |
| 2026-05-06 14:54 | 63.43296 | -31.69740 | 16423 ft | 222 kts | 260° |
| 2026-05-06 14:54 | 63.42964 | -31.73109 | 16424 ft | 223 kts | 261° |
| 2026-05-06 14:54 | 63.42629 | -31.76496 | 16424 ft | 223 kts | 260° |
| 2026-05-06 14:55 | 63.42294 | -31.79858 | 16424 ft | 222 kts | 261° |
| 2026-05-06 14:55 | 63.41959 | -31.83232 | 16426 ft | 222 kts | 259° |
| 2026-05-06 14:55 | 63.41626 | -31.86577 | 16430 ft | 220 kts | 259° |
| 2026-05-06 14:55 | 63.41292 | -31.89912 | 16430 ft | 220 kts | 259° |
| 2026-05-06 14:56 | 63.40960 | -31.93214 | 16430 ft | 221 kts | 259° |
| 2026-05-06 14:56 | 63.40623 | -31.96565 | 16428 ft | 221 kts | 260° |
| 2026-05-06 14:56 | 63.40282 | -31.99959 | 16427 ft | 222 kts | 260° |
| 2026-05-06 14:56 | 63.39941 | -32.03330 | 16429 ft | 223 kts | 260° |
| 2026-05-06 14:57 | 63.39601 | -32.06692 | 16430 ft | 222 kts | 260° |
| 2026-05-06 14:57 | 63.39264 | -32.10014 | 16430 ft | 222 kts | 260° |
| 2026-05-06 14:57 | 63.38925 | -32.13352 | 16431 ft | 221 kts | 258° |
| 2026-05-06 14:57 | 63.38584 | -32.16680 | 16434 ft | 220 kts | 259° |
| 2026-05-06 14:58 | 63.38243 | -32.19999 | 16432 ft | 220 kts | 260° |
| 2026-05-06 14:58 | 63.37904 | -32.23322 | 16444 ft | 219 kts | 259° |
| 2026-05-06 14:58 | 63.37562 | -32.26641 | 16441 ft | 220 kts | 262° |
| 2026-05-06 14:58 | 63.37220 | -32.29972 | 16443 ft | 220 kts | 261° |
| 2026-05-06 14:59 | 63.36874 | -32.33312 | 16443 ft | 220 kts | 259° |
| 2026-05-06 14:59 | 63.36529 | -32.36631 | 16441 ft | 220 kts | 262° |
| 2026-05-06 14:59 | 63.36185 | -32.39949 | 16444 ft | 220 kts | 259° |
| 2026-05-06 14:59 | 63.35839 | -32.43260 | 16444 ft | 219 kts | 259° |
| 2026-05-06 15:00 | 63.35496 | -32.46559 | 16448 ft | 219 kts | 260° |
| 2026-05-06 15:00 | 63.35151 | -32.49866 | 16448 ft | 219 kts | 259° |
| 2026-05-06 15:00 | 63.34801 | -32.53182 | 16445 ft | 220 kts | 261° |
| 2026-05-06 15:00 | 63.34452 | -32.56507 | 16445 ft | 221 kts | 262° |
| 2026-05-06 15:01 | 63.34102 | -32.59841 | 16447 ft | 221 kts | 261° |
| 2026-05-06 15:01 | 63.33749 | -32.63162 | 16447 ft | 220 kts | 261° |
| 2026-05-06 15:01 | 63.33400 | -32.66477 | 16448 ft | 220 kts | 259° |
| 2026-05-06 15:01 | 63.33047 | -32.69789 | 16446 ft | 219 kts | 261° |
| 2026-05-06 15:02 | 63.32696 | -32.73092 | 16447 ft | 219 kts | 259° |
| 2026-05-06 15:02 | 63.32344 | -32.76394 | 16445 ft | 220 kts | 259° |
| 2026-05-06 15:02 | 63.31989 | -32.79705 | 16445 ft | 220 kts | 260° |
| 2026-05-06 15:02 | 63.31635 | -32.83011 | 16444 ft | 220 kts | 261° |
| 2026-05-06 15:03 | 63.31278 | -32.86346 | 16448 ft | 221 kts | 259° |
| 2026-05-06 15:03 | 63.30921 | -32.89650 | 16448 ft | 220 kts | 259° |
| 2026-05-06 15:03 | 63.30563 | -32.92965 | 16447 ft | 220 kts | 261° |
| 2026-05-06 15:03 | 63.30206 | -32.96264 | 16449 ft | 219 kts | 258° |
| 2026-05-06 15:04 | 63.29848 | -32.99550 | 16449 ft | 219 kts | 260° |
| 2026-05-06 15:04 | 63.29491 | -33.02837 | 16448 ft | 220 kts | 261° |
| 2026-05-06 15:04 | 63.29133 | -33.06134 | 16449 ft | 219 kts | 259° |
| 2026-05-06 15:04 | 63.28771 | -33.09439 | 16448 ft | 221 kts | 260° |
| 2026-05-06 15:05 | 63.28413 | -33.12712 | 16448 ft | 221 kts | 261° |
| 2026-05-06 15:05 | 63.28050 | -33.16022 | 16450 ft | 220 kts | 258° |
| 2026-05-06 15:05 | 63.27685 | -33.19323 | 16454 ft | 220 kts | 259° |
| 2026-05-06 15:05 | 63.27322 | -33.22624 | 16454 ft | 219 kts | 258° |
| 2026-05-06 15:06 | 63.26958 | -33.25901 | 16455 ft | 218 kts | 258° |
| 2026-05-06 15:06 | 63.26594 | -33.29186 | 16452 ft | 220 kts | 261° |
| 2026-05-06 15:06 | 63.26229 | -33.32476 | 16452 ft | 220 kts | 260° |
| 2026-05-06 15:06 | 63.25861 | -33.35771 | 16454 ft | 220 kts | 261° |
| 2026-05-06 15:07 | 63.25495 | -33.39082 | 16457 ft | 221 kts | 259° |
| 2026-05-06 15:07 | 63.25125 | -33.42388 | 16459 ft | 220 kts | 260° |
| 2026-05-06 15:07 | 63.24753 | -33.45685 | 16456 ft | 221 kts | 260° |
| 2026-05-06 15:07 | 63.24383 | -33.48978 | 16458 ft | 219 kts | 258° |
| 2026-05-06 15:08 | 63.24013 | -33.52255 | 16459 ft | 219 kts | 258° |
| 2026-05-06 15:08 | 63.23642 | -33.55539 | 16457 ft | 220 kts | 260° |
| 2026-05-06 15:08 | 63.23271 | -33.58824 | 16457 ft | 219 kts | 258° |
| 2026-05-06 15:08 | 63.22898 | -33.62114 | 16454 ft | 220 kts | 260° |
| 2026-05-06 15:09 | 63.22523 | -33.65418 | 16457 ft | 221 kts | 260° |
| 2026-05-06 15:09 | 63.22149 | -33.68708 | 16460 ft | 220 kts | 258° |
| 2026-05-06 15:09 | 63.21773 | -33.71982 | 16462 ft | 218 kts | 259° |
| 2026-05-06 15:09 | 63.21403 | -33.75234 | 16460 ft | 217 kts | 259° |
| 2026-05-06 15:10 | 63.21031 | -33.78462 | 16456 ft | 216 kts | 259° |
| 2026-05-06 15:10 | 63.20661 | -33.81672 | 16459 ft | 216 kts | 261° |
| 2026-05-06 15:10 | 63.20290 | -33.84906 | 16459 ft | 216 kts | 259° |
| 2026-05-06 15:10 | 63.19919 | -33.88113 | 16459 ft | 216 kts | 261° |
| 2026-05-06 15:11 | 63.19546 | -33.91339 | 16458 ft | 216 kts | 260° |
| 2026-05-06 15:11 | 63.19173 | -33.94553 | 16459 ft | 216 kts | 259° |
| 2026-05-06 15:11 | 63.18799 | -33.97765 | 16456 ft | 216 kts | 261° |
| 2026-05-06 15:11 | 63.18425 | -34.00985 | 16458 ft | 216 kts | 260° |
| 2026-05-06 15:12 | 63.18048 | -34.04203 | 16464 ft | 215 kts | 259° |
| 2026-05-06 15:12 | 63.17674 | -34.07402 | 16459 ft | 215 kts | 259° |
| 2026-05-06 15:12 | 63.17297 | -34.10615 | 16460 ft | 215 kts | 259° |
| 2026-05-06 15:12 | 63.16918 | -34.13829 | 16470 ft | 216 kts | 260° |
| 2026-05-06 15:13 | 63.16541 | -34.17034 | 16468 ft | 216 kts | 261° |
| 2026-05-06 15:13 | 63.16162 | -34.20263 | 16464 ft | 216 kts | 260° |
| 2026-05-06 15:13 | 63.15781 | -34.23466 | 16467 ft | 216 kts | 260° |
| 2026-05-06 15:13 | 63.15398 | -34.26692 | 16466 ft | 216 kts | 259° |
| 2026-05-06 15:14 | 63.15019 | -34.29892 | 16468 ft | 216 kts | 259° |
| 2026-05-06 15:14 | 63.14636 | -34.33096 | 16467 ft | 216 kts | 260° |
| 2026-05-06 15:14 | 63.14255 | -34.36310 | 16471 ft | 216 kts | 260° |
| 2026-05-06 15:14 | 63.13869 | -34.39526 | 16469 ft | 216 kts | 259° |
| 2026-05-06 15:15 | 63.13486 | -34.42724 | 16468 ft | 216 kts | 260° |
| 2026-05-06 15:15 | 63.13105 | -34.45898 | 16461 ft | 216 kts | 259° |
| 2026-05-06 15:15 | 63.12720 | -34.49092 | 16471 ft | 215 kts | 259° |
| 2026-05-06 15:15 | 63.12336 | -34.52278 | 16475 ft | 214 kts | 259° |
| 2026-05-06 15:16 | 63.11952 | -34.55459 | 16468 ft | 214 kts | 259° |
| 2026-05-06 15:16 | 63.11568 | -34.58628 | 16467 ft | 214 kts | 259° |
| 2026-05-06 15:16 | 63.11183 | -34.61805 | 16469 ft | 214 kts | 259° |
| 2026-05-06 15:16 | 63.10799 | -34.64966 | 16466 ft | 214 kts | 260° |
| 2026-05-06 15:17 | 63.10413 | -34.68127 | 16467 ft | 214 kts | 259° |
| 2026-05-06 15:17 | 63.10026 | -34.71300 | 16469 ft | 214 kts | 259° |
| 2026-05-06 15:17 | 63.09638 | -34.74471 | 16470 ft | 214 kts | 259° |
| 2026-05-06 15:17 | 63.09249 | -34.77641 | 16467 ft | 214 kts | 259° |
| 2026-05-06 15:18 | 63.08860 | -34.80807 | 16469 ft | 214 kts | 259° |
| 2026-05-06 15:18 | 63.08470 | -34.83967 | 16470 ft | 214 kts | 259° |
| 2026-05-06 15:18 | 63.08080 | -34.87138 | 16470 ft | 214 kts | 259° |
| 2026-05-06 15:18 | 63.07689 | -34.90298 | 16471 ft | 214 kts | 259° |
| 2026-05-06 15:19 | 63.07296 | -34.93467 | 16472 ft | 214 kts | 259° |
| 2026-05-06 15:19 | 63.06903 | -34.96639 | 16474 ft | 214 kts | 259° |
| 2026-05-06 15:19 | 63.06511 | -34.99793 | 16472 ft | 214 kts | 259° |
| 2026-05-06 15:19 | 63.06116 | -35.02956 | 16473 ft | 214 kts | 259° |
| 2026-05-06 15:20 | 63.05719 | -35.06128 | 16471 ft | 214 kts | 259° |
| 2026-05-06 15:20 | 63.05325 | -35.09287 | 16481 ft | 214 kts | 259° |
| 2026-05-06 15:20 | 63.04929 | -35.12442 | 16479 ft | 214 kts | 259° |
| 2026-05-06 15:20 | 63.04532 | -35.15600 | 16482 ft | 214 kts | 259° |
| 2026-05-06 15:21 | 63.04133 | -35.18759 | 16478 ft | 214 kts | 259° |
| 2026-05-06 15:21 | 63.03732 | -35.21919 | 16467 ft | 214 kts | 259° |
| 2026-05-06 15:21 | 63.03335 | -35.25067 | 16484 ft | 213 kts | 259° |
| 2026-05-06 15:21 | 63.02940 | -35.28201 | 16483 ft | 212 kts | 259° |
| 2026-05-06 15:22 | 63.02543 | -35.31331 | 16482 ft | 212 kts | 259° |
| 2026-05-06 15:22 | 63.02145 | -35.34466 | 16480 ft | 213 kts | 259° |
| 2026-05-06 15:22 | 63.01749 | -35.37602 | 16483 ft | 212 kts | 259° |
| 2026-05-06 15:22 | 63.01351 | -35.40732 | 16482 ft | 212 kts | 259° |
| 2026-05-06 15:23 | 63.00948 | -35.43866 | 16480 ft | 213 kts | 259° |
| 2026-05-06 15:23 | 63.00547 | -35.46986 | 16478 ft | 213 kts | 259° |
| 2026-05-06 15:23 | 63.00142 | -35.50121 | 16479 ft | 212 kts | 259° |
| 2026-05-06 15:23 | 62.99740 | -35.53252 | 16478 ft | 213 kts | 259° |
| 2026-05-06 15:24 | 62.99336 | -35.56378 | 16479 ft | 213 kts | 259° |
| 2026-05-06 15:24 | 62.98932 | -35.59510 | 16479 ft | 213 kts | 259° |
| 2026-05-06 15:24 | 62.98663 | -35.61578 | 16479 ft | 213 kts | 259° |
| 2026-05-06 15:24 | 62.98256 | -35.64705 | 16479 ft | 213 kts | 259° |
| 2026-05-06 15:25 | 62.97850 | -35.67822 | 16483 ft | 212 kts | 259° |
| 2026-05-06 15:25 | 62.97446 | -35.70948 | 16482 ft | 213 kts | 259° |
| 2026-05-06 15:25 | 62.96899 | -35.75133 | 16481 ft | 213 kts | 259° |
| 2026-05-06 15:25 | 62.96489 | -35.78250 | 16482 ft | 213 kts | 259° |
| 2026-05-06 15:26 | 62.96220 | -35.80321 | 16482 ft | 213 kts | 259° |
| 2026-05-06 15:26 | 62.95810 | -35.83446 | 16484 ft | 213 kts | 259° |
| 2026-05-06 15:26 | 62.95398 | -35.86570 | 16485 ft | 213 kts | 259° |
| 2026-05-06 15:26 | 62.94986 | -35.89691 | 16484 ft | 213 kts | 259° |
| 2026-05-06 15:27 | 62.94574 | -35.92821 | 16484 ft | 213 kts | 258° |
| 2026-05-06 15:27 | 62.94159 | -35.95946 | 16485 ft | 213 kts | 258° |
| 2026-05-06 15:27 | 62.93747 | -35.99054 | 16486 ft | 212 kts | 259° |
| 2026-05-06 15:27 | 62.93336 | -36.02149 | 16488 ft | 211 kts | 259° |
| 2026-05-06 15:28 | 62.92925 | -36.05247 | 16487 ft | 211 kts | 259° |
| 2026-05-06 15:28 | 62.92512 | -36.08344 | 16485 ft | 211 kts | 259° |
| 2026-05-06 15:28 | 62.92099 | -36.11439 | 16487 ft | 212 kts | 259° |
| 2026-05-06 15:28 | 62.91684 | -36.14538 | 16487 ft | 212 kts | 259° |
| 2026-05-06 15:29 | 62.91268 | -36.17639 | 16484 ft | 212 kts | 259° |
| 2026-05-06 15:29 | 62.90852 | -36.20730 | 16485 ft | 212 kts | 259° |
| 2026-05-06 15:29 | 62.90435 | -36.23828 | 16483 ft | 212 kts | 259° |
| 2026-05-06 15:29 | 62.90021 | -36.26890 | 16486 ft | 212 kts | 258° |
| 2026-05-06 15:30 | 62.89602 | -36.29982 | 16487 ft | 212 kts | 259° |
| 2026-05-06 15:30 | 62.89184 | -36.33082 | 16486 ft | 212 kts | 258° |
| 2026-05-06 15:30 | 62.88767 | -36.36171 | 16488 ft | 212 kts | 259° |
| 2026-05-06 15:30 | 62.88345 | -36.39266 | 16487 ft | 212 kts | 258° |
| 2026-05-06 15:31 | 62.87924 | -36.42354 | 16491 ft | 212 kts | 258° |
| 2026-05-06 15:31 | 62.87503 | -36.45447 | 16490 ft | 212 kts | 258° |
| 2026-05-06 15:31 | 62.87081 | -36.48531 | 16488 ft | 212 kts | 258° |
| 2026-05-06 15:32 | 62.86235 | -36.54708 | 16490 ft | 212 kts | 258° |
| 2026-05-06 15:32 | 62.85810 | -36.57798 | 16488 ft | 212 kts | 258° |
| 2026-05-06 15:32 | 62.85385 | -36.60879 | 16489 ft | 212 kts | 258° |
| 2026-05-06 15:32 | 62.84960 | -36.63960 | 16488 ft | 212 kts | 258° |
| 2026-05-06 15:33 | 62.84532 | -36.67057 | 16487 ft | 212 kts | 258° |
| 2026-05-06 15:33 | 62.84105 | -36.70142 | 16489 ft | 212 kts | 258° |
| 2026-05-06 15:33 | 62.83679 | -36.73215 | 16490 ft | 210 kts | 259° |
| 2026-05-06 15:33 | 62.83253 | -36.76282 | 16489 ft | 210 kts | 259° |
| 2026-05-06 15:34 | 62.82827 | -36.79341 | 16489 ft | 210 kts | 259° |
| 2026-05-06 15:34 | 62.82399 | -36.82405 | 16488 ft | 210 kts | 259° |
| 2026-05-06 15:34 | 62.81972 | -36.85462 | 16487 ft | 210 kts | 259° |
| 2026-05-06 15:34 | 62.81543 | -36.88524 | 16486 ft | 210 kts | 259° |
| 2026-05-06 15:35 | 62.81114 | -36.91576 | 16489 ft | 210 kts | 259° |
| 2026-05-06 15:35 | 62.80685 | -36.94636 | 16494 ft | 210 kts | 259° |
| 2026-05-06 15:35 | 62.80254 | -36.97692 | 16493 ft | 210 kts | 259° |
| 2026-05-06 15:35 | 62.79823 | -37.00753 | 16493 ft | 210 kts | 259° |
| 2026-05-06 15:36 | 62.79391 | -37.03807 | 16492 ft | 211 kts | 259° |
| 2026-05-06 15:36 | 62.78959 | -37.06859 | 16493 ft | 210 kts | 259° |
| 2026-05-06 15:36 | 62.78525 | -37.09921 | 16493 ft | 211 kts | 259° |
| 2026-05-06 15:36 | 62.78096 | -37.12936 | 16492 ft | 211 kts | 259° |
| 2026-05-06 15:37 | 62.77662 | -37.15986 | 16492 ft | 211 kts | 259° |
| 2026-05-06 15:37 | 62.77225 | -37.19048 | 16493 ft | 211 kts | 259° |
| 2026-05-06 15:37 | 62.76790 | -37.22103 | 16492 ft | 211 kts | 259° |
| 2026-05-06 15:37 | 62.76353 | -37.25155 | 16492 ft | 211 kts | 259° |
| 2026-05-06 15:38 | 62.75916 | -37.28198 | 16493 ft | 211 kts | 259° |
| 2026-05-06 15:38 | 62.75476 | -37.31256 | 16492 ft | 211 kts | 259° |
| 2026-05-06 15:38 | 62.75036 | -37.34305 | 16493 ft | 211 kts | 259° |
| 2026-05-06 15:38 | 62.74597 | -37.37352 | 16493 ft | 211 kts | 259° |
| 2026-05-06 15:39 | 62.74158 | -37.40401 | 16492 ft | 211 kts | 258° |
| 2026-05-06 15:39 | 62.73716 | -37.43446 | 16492 ft | 211 kts | 259° |
| 2026-05-06 15:39 | 62.73276 | -37.46482 | 16496 ft | 209 kts | 259° |
| 2026-05-06 15:39 | 62.72835 | -37.49507 | 16495 ft | 209 kts | 259° |
| 2026-05-06 15:40 | 62.72397 | -37.52532 | 16494 ft | 209 kts | 259° |
| 2026-05-06 15:40 | 62.71957 | -37.55553 | 16493 ft | 209 kts | 259° |
| 2026-05-06 15:40 | 62.71515 | -37.58576 | 16492 ft | 209 kts | 259° |
| 2026-05-06 15:40 | 62.71074 | -37.61597 | 16492 ft | 209 kts | 259° |
| 2026-05-06 15:41 | 62.70630 | -37.64622 | 16492 ft | 209 kts | 259° |
| 2026-05-06 15:41 | 62.70187 | -37.67640 | 16491 ft | 209 kts | 259° |
| 2026-05-06 15:41 | 62.69743 | -37.70659 | 16491 ft | 209 kts | 259° |
| 2026-05-06 15:41 | 62.69298 | -37.73680 | 16490 ft | 210 kts | 259° |
| 2026-05-06 15:42 | 62.68853 | -37.76700 | 16490 ft | 209 kts | 259° |
| 2026-05-06 15:42 | 62.68406 | -37.79719 | 16490 ft | 209 kts | 259° |
| 2026-05-06 15:42 | 62.67959 | -37.82737 | 16490 ft | 209 kts | 259° |
| 2026-05-06 15:42 | 62.67512 | -37.85751 | 16495 ft | 209 kts | 259° |
| 2026-05-06 15:43 | 62.67064 | -37.88765 | 16497 ft | 209 kts | 259° |
| 2026-05-06 15:43 | 62.66614 | -37.91776 | 16496 ft | 209 kts | 259° |
| 2026-05-06 15:43 | 62.66164 | -37.94792 | 16495 ft | 209 kts | 259° |
| 2026-05-06 15:43 | 62.65718 | -37.97799 | 16495 ft | 209 kts | 259° |
| 2026-05-06 15:44 | 62.65267 | -38.00807 | 16499 ft | 210 kts | 258° |
| 2026-05-06 15:44 | 62.64820 | -38.03784 | 16499 ft | 210 kts | 258° |
| 2026-05-06 15:44 | 62.64369 | -38.06792 | 16498 ft | 209 kts | 259° |
| 2026-05-06 15:44 | 62.63915 | -38.09811 | 16497 ft | 210 kts | 259° |
| 2026-05-06 15:45 | 62.63463 | -38.12819 | 16495 ft | 210 kts | 258° |
| 2026-05-06 15:45 | 62.63007 | -38.15824 | 16495 ft | 210 kts | 258° |
| 2026-05-06 15:45 | 62.62552 | -38.18833 | 16492 ft | 208 kts | 258° |
| 2026-05-06 15:45 | 62.62100 | -38.21813 | 16495 ft | 208 kts | 258° |
| 2026-05-06 15:46 | 62.61648 | -38.24804 | 16492 ft | 208 kts | 258° |
| 2026-05-06 15:46 | 62.61194 | -38.27795 | 16493 ft | 209 kts | 258° |
| 2026-05-06 15:46 | 62.60737 | -38.30785 | 16492 ft | 209 kts | 258° |
| 2026-05-06 15:46 | 62.60282 | -38.33784 | 16493 ft | 209 kts | 258° |
| 2026-05-06 15:47 | 62.59824 | -38.36775 | 16494 ft | 209 kts | 258° |
| 2026-05-06 15:47 | 62.59368 | -38.39764 | 16494 ft | 209 kts | 258° |
| 2026-05-06 15:47 | 62.58907 | -38.42754 | 16493 ft | 209 kts | 258° |
| 2026-05-06 15:47 | 62.58450 | -38.45738 | 16492 ft | 209 kts | 258° |
| 2026-05-06 15:48 | 62.57991 | -38.48725 | 16489 ft | 209 kts | 258° |
| 2026-05-06 15:48 | 62.57531 | -38.51716 | 16490 ft | 209 kts | 258° |
| 2026-05-06 15:48 | 62.57069 | -38.54700 | 16489 ft | 209 kts | 258° |
| 2026-05-06 15:48 | 62.56608 | -38.57687 | 16490 ft | 209 kts | 258° |
| 2026-05-06 15:49 | 62.56146 | -38.60674 | 16490 ft | 209 kts | 258° |
| 2026-05-06 15:49 | 62.55682 | -38.63657 | 16490 ft | 209 kts | 258° |
| 2026-05-06 15:49 | 62.55218 | -38.66644 | 16490 ft | 209 kts | 258° |
| 2026-05-06 15:49 | 62.54756 | -38.69624 | 16491 ft | 209 kts | 258° |
| 2026-05-06 15:50 | 62.54290 | -38.72607 | 16491 ft | 209 kts | 258° |
| 2026-05-06 15:50 | 62.53823 | -38.75590 | 16499 ft | 209 kts | 258° |
| 2026-05-06 15:50 | 62.53358 | -38.78567 | 16498 ft | 209 kts | 258° |
| 2026-05-06 15:50 | 62.52896 | -38.81513 | 16497 ft | 209 kts | 258° |
| 2026-05-06 15:51 | 62.52429 | -38.84490 | 16501 ft | 209 kts | 258° |
| 2026-05-06 15:51 | 62.51956 | -38.87504 | 16500 ft | 209 kts | 258° |
| 2026-05-06 15:51 | 62.51486 | -38.90483 | 16485 ft | 208 kts | 258° |
| 2026-05-06 15:51 | 62.51026 | -38.93398 | 16499 ft | 208 kts | 258° |
| 2026-05-06 15:52 | 62.50562 | -38.96349 | 16498 ft | 208 kts | 258° |
| 2026-05-06 15:52 | 62.50093 | -38.99309 | 16498 ft | 208 kts | 258° |
| 2026-05-06 15:52 | 62.49573 | -39.02239 | 16499 ft | 209 kts | 255° |
| 2026-05-06 15:52 | 62.49044 | -39.05166 | 16498 ft | 209 kts | 255° |
| 2026-05-06 15:53 | 62.48513 | -39.08102 | 16500 ft | 209 kts | 255° |
| 2026-05-06 15:53 | 62.47983 | -39.11024 | 16499 ft | 209 kts | 255° |
| 2026-05-06 15:53 | 62.47454 | -39.13951 | 16502 ft | 209 kts | 255° |
| 2026-05-06 15:53 | 62.46920 | -39.16871 | 16499 ft | 209 kts | 255° |
| 2026-05-06 15:54 | 62.46387 | -39.19792 | 16502 ft | 209 kts | 255° |
| 2026-05-06 15:54 | 62.45851 | -39.22719 | 16501 ft | 209 kts | 255° |
| 2026-05-06 15:54 | 62.45317 | -39.25640 | 16496 ft | 209 kts | 255° |
| 2026-05-06 15:54 | 62.44783 | -39.28561 | 16492 ft | 209 kts | 255° |
| 2026-05-06 15:55 | 62.44247 | -39.31478 | 16498 ft | 209 kts | 255° |
| 2026-05-06 15:55 | 62.43709 | -39.34397 | 16501 ft | 209 kts | 255° |
| 2026-05-06 15:55 | 62.43173 | -39.37319 | 16500 ft | 209 kts | 255° |
| 2026-05-06 15:55 | 62.42635 | -39.40239 | 16491 ft | 209 kts | 255° |
| 2026-05-06 15:56 | 62.42097 | -39.43145 | 16502 ft | 209 kts | 255° |
| 2026-05-06 15:56 | 62.41558 | -39.46062 | 16497 ft | 209 kts | 255° |
| 2026-05-06 15:56 | 62.41018 | -39.48978 | 16501 ft | 209 kts | 255° |
| 2026-05-06 15:56 | 62.40480 | -39.51890 | 16492 ft | 209 kts | 255° |
| 2026-05-06 15:57 | 62.39935 | -39.54804 | 16500 ft | 209 kts | 255° |
| 2026-05-06 15:57 | 62.39396 | -39.57706 | 16498 ft | 209 kts | 255° |
| 2026-05-06 15:57 | 62.38856 | -39.60621 | 16495 ft | 209 kts | 255° |
| 2026-05-06 15:57 | 62.38313 | -39.63517 | 16500 ft | 208 kts | 254° |
| 2026-05-06 15:58 | 62.37773 | -39.66410 | 16498 ft | 208 kts | 254° |
| 2026-05-06 15:58 | 62.37232 | -39.69306 | 16498 ft | 208 kts | 254° |
| 2026-05-06 15:58 | 62.36689 | -39.72192 | 16498 ft | 208 kts | 254° |
| 2026-05-06 15:58 | 62.36148 | -39.75084 | 16498 ft | 208 kts | 254° |
| 2026-05-06 15:59 | 62.35604 | -39.77979 | 16498 ft | 208 kts | 254° |
| 2026-05-06 15:59 | 62.35060 | -39.80866 | 16497 ft | 208 kts | 254° |
| 2026-05-06 15:59 | 62.34515 | -39.83752 | 16498 ft | 208 kts | 254° |
| 2026-05-06 15:59 | 62.33969 | -39.86649 | 16498 ft | 208 kts | 254° |
| 2026-05-06 16:00 | 62.33431 | -39.89490 | 16500 ft | 208 kts | 254° |
| 2026-05-06 16:00 | 62.32878 | -39.92416 | 16499 ft | 208 kts | 254° |
| 2026-05-06 16:00 | 62.32339 | -39.95256 | 16498 ft | 208 kts | 254° |
| 2026-05-06 16:00 | 62.31791 | -39.98142 | 16499 ft | 208 kts | 254° |
| 2026-05-06 16:01 | 62.31244 | -40.01020 | 16499 ft | 208 kts | 254° |
| 2026-05-06 16:01 | 62.30695 | -40.03905 | 16498 ft | 208 kts | 254° |
| 2026-05-06 16:01 | 62.30146 | -40.06782 | 16497 ft | 208 kts | 254° |
| 2026-05-06 16:01 | 62.29595 | -40.09670 | 16496 ft | 208 kts | 254° |
| 2026-05-06 16:02 | 62.29043 | -40.12547 | 16496 ft | 208 kts | 254° |
| 2026-05-06 16:02 | 62.28492 | -40.15427 | 16492 ft | 208 kts | 253° |
| 2026-05-06 16:02 | 62.27939 | -40.18307 | 16493 ft | 208 kts | 254° |
| 2026-05-06 16:02 | 62.27386 | -40.21192 | 16492 ft | 208 kts | 253° |
| 2026-05-06 16:03 | 62.26832 | -40.24064 | 16493 ft | 208 kts | 254° |
| 2026-05-06 16:03 | 62.26278 | -40.26946 | 16492 ft | 208 kts | 253° |
| 2026-05-06 16:03 | 62.25725 | -40.29811 | 16492 ft | 208 kts | 254° |
| 2026-05-06 16:03 | 62.25170 | -40.32686 | 16493 ft | 208 kts | 253° |
| 2026-05-06 16:04 | 62.24616 | -40.35558 | 16492 ft | 208 kts | 253° |
| 2026-05-06 16:04 | 62.24058 | -40.38433 | 16493 ft | 208 kts | 253° |
| 2026-05-06 16:04 | 62.23501 | -40.41305 | 16493 ft | 209 kts | 253° |
| 2026-05-06 16:04 | 62.22950 | -40.44137 | 16493 ft | 208 kts | 253° |
| 2026-05-06 16:05 | 62.22384 | -40.47045 | 16492 ft | 209 kts | 253° |
| 2026-05-06 16:05 | 62.21827 | -40.49913 | 16493 ft | 208 kts | 253° |
| 2026-05-06 16:05 | 62.21266 | -40.52778 | 16492 ft | 209 kts | 253° |
| 2026-05-06 16:05 | 62.20714 | -40.55604 | 16493 ft | 208 kts | 253° |
| 2026-05-06 16:06 | 62.20145 | -40.58514 | 16492 ft | 209 kts | 253° |
| 2026-05-06 16:06 | 62.19585 | -40.61380 | 16494 ft | 209 kts | 253° |
| 2026-05-06 16:06 | 62.19024 | -40.64236 | 16497 ft | 209 kts | 253° |
| 2026-05-06 16:06 | 62.18462 | -40.67098 | 16495 ft | 209 kts | 253° |
| 2026-05-06 16:07 | 62.17897 | -40.69968 | 16492 ft | 209 kts | 253° |
| 2026-05-06 16:07 | 62.17333 | -40.72827 | 16494 ft | 209 kts | 253° |
| 2026-05-06 16:07 | 62.16777 | -40.75646 | 16499 ft | 209 kts | 253° |
| 2026-05-06 16:07 | 62.16212 | -40.78505 | 16498 ft | 209 kts | 253° |
| 2026-05-06 16:08 | 62.15646 | -40.81368 | 16498 ft | 209 kts | 253° |
| 2026-05-06 16:08 | 62.15072 | -40.84265 | 16499 ft | 209 kts | 253° |
| 2026-05-06 16:08 | 62.14504 | -40.87123 | 16498 ft | 209 kts | 253° |
| 2026-05-06 16:08 | 62.13944 | -40.89942 | 16499 ft | 209 kts | 253° |
| 2026-05-06 16:09 | 62.13375 | -40.92797 | 16498 ft | 209 kts | 253° |
| 2026-05-06 16:09 | 62.12806 | -40.95654 | 16499 ft | 209 kts | 253° |
| 2026-05-06 16:09 | 62.12232 | -40.98532 | 16501 ft | 208 kts | 252° |
| 2026-05-06 16:09 | 62.11671 | -41.01339 | 16500 ft | 208 kts | 252° |
| 2026-05-06 16:10 | 62.11101 | -41.04189 | 16499 ft | 208 kts | 252° |
| 2026-05-06 16:10 | 62.10530 | -41.07032 | 16498 ft | 208 kts | 252° |
| 2026-05-06 16:10 | 62.09961 | -41.09871 | 16497 ft | 208 kts | 252° |
| 2026-05-06 16:10 | 62.09391 | -41.12717 | 16498 ft | 208 kts | 252° |
| 2026-05-06 16:11 | 62.08817 | -41.15559 | 16498 ft | 208 kts | 252° |
| 2026-05-06 16:11 | 62.08243 | -41.18400 | 16498 ft | 208 kts | 252° |
| 2026-05-06 16:11 | 62.07672 | -41.21241 | 16498 ft | 208 kts | 252° |
| 2026-05-06 16:11 | 62.07097 | -41.24076 | 16501 ft | 208 kts | 252° |
| 2026-05-06 16:12 | 62.06523 | -41.26917 | 16501 ft | 208 kts | 252° |
| 2026-05-06 16:12 | 62.05947 | -41.29762 | 16500 ft | 209 kts | 252° |
| 2026-05-06 16:12 | 62.05371 | -41.32593 | 16501 ft | 208 kts | 252° |
| 2026-05-06 16:12 | 62.04795 | -41.35432 | 16500 ft | 209 kts | 252° |
| 2026-05-06 16:13 | 62.04413 | -41.37310 | 16501 ft | 208 kts | 252° |
| 2026-05-06 16:13 | 62.03640 | -41.41100 | 16500 ft | 209 kts | 252° |
| 2026-05-06 16:13 | 62.03257 | -41.42976 | 16501 ft | 208 kts | 252° |
| 2026-05-06 16:13 | 62.02679 | -41.45803 | 16501 ft | 209 kts | 251° |
| 2026-05-06 16:14 | 62.02101 | -41.48637 | 16500 ft | 209 kts | 251° |
| 2026-05-06 16:14 | 62.01521 | -41.51466 | 16503 ft | 209 kts | 251° |
| 2026-05-06 16:14 | 62.00940 | -41.54297 | 16503 ft | 209 kts | 251° |
| 2026-05-06 16:14 | 62.00358 | -41.57127 | 16503 ft | 209 kts | 251° |
| 2026-05-06 16:15 | 61.99777 | -41.59959 | 16505 ft | 208 kts | 251° |
| 2026-05-06 16:15 | 61.99196 | -41.62778 | 16505 ft | 208 kts | 251° |
| 2026-05-06 16:15 | 61.98614 | -41.65593 | 16506 ft | 208 kts | 250° |
| 2026-05-06 16:15 | 61.98035 | -41.68407 | 16506 ft | 208 kts | 250° |
| 2026-05-06 16:16 | 61.97453 | -41.71218 | 16507 ft | 208 kts | 250° |
| 2026-05-06 16:16 | 61.96869 | -41.74036 | 16509 ft | 208 kts | 250° |
| 2026-05-06 16:16 | 61.96286 | -41.76851 | 16513 ft | 208 kts | 250° |
| 2026-05-06 16:16 | 61.95701 | -41.79668 | 16512 ft | 208 kts | 250° |
| 2026-05-06 16:17 | 61.95116 | -41.82478 | 16510 ft | 208 kts | 250° |
| 2026-05-06 16:17 | 61.94530 | -41.85291 | 16512 ft | 208 kts | 250° |
| 2026-05-06 16:17 | 61.93944 | -41.88104 | 16511 ft | 208 kts | 250° |
| 2026-05-06 16:17 | 61.93357 | -41.90919 | 16510 ft | 208 kts | 250° |
| 2026-05-06 16:18 | 61.92767 | -41.93731 | 16510 ft | 208 kts | 250° |
| 2026-05-06 16:18 | 61.92179 | -41.96541 | 16510 ft | 208 kts | 250° |
| 2026-05-06 16:18 | 61.91592 | -41.99352 | 16512 ft | 209 kts | 250° |
| 2026-05-06 16:18 | 61.91001 | -42.02166 | 16511 ft | 209 kts | 250° |
| 2026-05-06 16:19 | 61.90409 | -42.04978 | 16513 ft | 209 kts | 250° |
| 2026-05-06 16:19 | 61.89815 | -42.07799 | 16515 ft | 209 kts | 250° |
| 2026-05-06 16:19 | 61.89222 | -42.10610 | 16516 ft | 209 kts | 250° |
| 2026-05-06 16:19 | 61.88628 | -42.13426 | 16516 ft | 209 kts | 250° |
| 2026-05-06 16:20 | 61.88035 | -42.16232 | 16509 ft | 209 kts | 250° |
| 2026-05-06 16:20 | 61.87443 | -42.19033 | 16511 ft | 209 kts | 250° |
| 2026-05-06 16:20 | 61.86848 | -42.21838 | 16514 ft | 209 kts | 250° |
| 2026-05-06 16:20 | 61.86251 | -42.24642 | 16511 ft | 208 kts | 250° |
| 2026-05-06 16:21 | 61.85657 | -42.27442 | 16511 ft | 208 kts | 250° |
| 2026-05-06 16:21 | 61.85070 | -42.30202 | 16512 ft | 208 kts | 249° |
| 2026-05-06 16:21 | 61.84473 | -42.33000 | 16513 ft | 209 kts | 249° |
| 2026-05-06 16:21 | 61.83876 | -42.35801 | 16512 ft | 209 kts | 249° |
| 2026-05-06 16:22 | 61.83277 | -42.38604 | 16511 ft | 209 kts | 249° |
| 2026-05-06 16:22 | 61.82678 | -42.41401 | 16512 ft | 209 kts | 249° |
| 2026-05-06 16:22 | 61.82080 | -42.44191 | 16512 ft | 209 kts | 249° |
| 2026-05-06 16:22 | 61.81480 | -42.46990 | 16512 ft | 208 kts | 249° |
| 2026-05-06 16:23 | 61.80884 | -42.49781 | 16512 ft | 209 kts | 249° |
| 2026-05-06 16:23 | 61.80281 | -42.52574 | 16511 ft | 209 kts | 248° |
| 2026-05-06 16:23 | 61.79680 | -42.55364 | 16512 ft | 209 kts | 249° |
| 2026-05-06 16:23 | 61.79075 | -42.58163 | 16513 ft | 209 kts | 249° |
| 2026-05-06 16:24 | 61.78472 | -42.60958 | 16516 ft | 210 kts | 248° |
| 2026-05-06 16:24 | 61.77867 | -42.63765 | 16516 ft | 210 kts | 249° |
| 2026-05-06 16:24 | 61.77258 | -42.66577 | 16514 ft | 210 kts | 248° |
| 2026-05-06 16:24 | 61.76650 | -42.69376 | 16516 ft | 209 kts | 248° |
| 2026-05-06 16:25 | 61.76044 | -42.72160 | 16514 ft | 209 kts | 248° |
| 2026-05-06 16:25 | 61.75439 | -42.74952 | 16514 ft | 209 kts | 249° |
| 2026-05-06 16:25 | 61.74832 | -42.77735 | 16514 ft | 208 kts | 248° |
| 2026-05-06 16:25 | 61.74229 | -42.80506 | 16519 ft | 208 kts | 248° |
| 2026-05-06 16:26 | 61.73623 | -42.83280 | 16520 ft | 208 kts | 248° |
| 2026-05-06 16:26 | 61.73027 | -42.86010 | 16522 ft | 209 kts | 248° |
| 2026-05-06 16:26 | 61.72415 | -42.88802 | 16521 ft | 210 kts | 248° |
| 2026-05-06 16:26 | 61.71803 | -42.91594 | 16521 ft | 210 kts | 248° |
| 2026-05-06 16:27 | 61.71191 | -42.94394 | 16520 ft | 210 kts | 248° |
| 2026-05-06 16:27 | 61.70576 | -42.97180 | 16515 ft | 209 kts | 247° |
| 2026-05-06 16:27 | 61.69967 | -42.99952 | 16515 ft | 208 kts | 247° |
| 2026-05-06 16:27 | 61.69360 | -43.02705 | 16514 ft | 208 kts | 247° |
| 2026-05-06 16:28 | 61.68751 | -43.05468 | 16513 ft | 207 kts | 247° |
| 2026-05-06 16:28 | 61.68143 | -43.08225 | 16512 ft | 207 kts | 247° |
| 2026-05-06 16:28 | 61.67533 | -43.10983 | 16512 ft | 208 kts | 247° |
| 2026-05-06 16:28 | 61.66923 | -43.13743 | 16511 ft | 208 kts | 247° |
| 2026-05-06 16:29 | 61.66309 | -43.16495 | 16513 ft | 207 kts | 247° |
| 2026-05-06 16:29 | 61.65699 | -43.19234 | 16511 ft | 207 kts | 246° |
| 2026-05-06 16:29 | 61.65091 | -43.21987 | 16512 ft | 207 kts | 246° |
| 2026-05-06 16:29 | 61.64481 | -43.24731 | 16512 ft | 208 kts | 246° |
| 2026-05-06 16:30 | 61.63865 | -43.27486 | 16516 ft | 208 kts | 246° |
| 2026-05-06 16:30 | 61.63461 | -43.29305 | 16515 ft | 208 kts | 246° |
| 2026-05-06 16:30 | 61.62639 | -43.32977 | 16515 ft | 208 kts | 246° |
| 2026-05-06 16:30 | 61.62024 | -43.35726 | 16513 ft | 207 kts | 246° |
| 2026-05-06 16:31 | 61.61417 | -43.38433 | 16514 ft | 208 kts | 246° |
| 2026-05-06 16:31 | 61.60802 | -43.41174 | 16513 ft | 207 kts | 246° |
| 2026-05-06 16:31 | 61.60186 | -43.43915 | 16514 ft | 208 kts | 246° |
| 2026-05-06 16:31 | 61.59570 | -43.46659 | 16513 ft | 208 kts | 246° |
| 2026-05-06 16:32 | 61.58953 | -43.49396 | 16511 ft | 207 kts | 246° |
| 2026-05-06 16:32 | 61.58335 | -43.52137 | 16512 ft | 208 kts | 246° |
| 2026-05-06 16:32 | 61.57715 | -43.54886 | 16510 ft | 208 kts | 246° |
| 2026-05-06 16:32 | 61.57095 | -43.57628 | 16510 ft | 208 kts | 246° |
| 2026-05-06 16:33 | 61.56473 | -43.60363 | 16511 ft | 207 kts | 245° |
| 2026-05-06 16:33 | 61.55857 | -43.63086 | 16510 ft | 207 kts | 245° |
| 2026-05-06 16:33 | 61.55239 | -43.65813 | 16514 ft | 207 kts | 246° |
| 2026-05-06 16:34 | 61.54002 | -43.71251 | 16513 ft | 207 kts | 246° |
| 2026-05-06 16:34 | 61.53381 | -43.73982 | 16506 ft | 207 kts | 245° |
| 2026-05-06 16:34 | 61.52757 | -43.76709 | 16509 ft | 207 kts | 246° |
| 2026-05-06 16:34 | 61.52136 | -43.79431 | 16511 ft | 207 kts | 245° |
| 2026-05-06 16:35 | 61.51516 | -43.82146 | 16512 ft | 207 kts | 245° |
| 2026-05-06 16:35 | 61.50893 | -43.84862 | 16513 ft | 207 kts | 246° |
| 2026-05-06 16:35 | 61.50271 | -43.87575 | 16494 ft | 207 kts | 246° |
| 2026-05-06 16:35 | 61.49648 | -43.90293 | 16495 ft | 207 kts | 245° |
| 2026-05-06 16:36 | 61.49025 | -43.92999 | 16500 ft | 207 kts | 245° |
| 2026-05-06 16:36 | 61.48397 | -43.95718 | 16499 ft | 207 kts | 245° |
| 2026-05-06 16:36 | 61.47771 | -43.98424 | 16499 ft | 207 kts | 246° |
| 2026-05-06 16:36 | 61.47144 | -44.01134 | 16497 ft | 206 kts | 246° |
| 2026-05-06 16:37 | 61.46523 | -44.03839 | 16508 ft | 207 kts | 245° |
| 2026-05-06 16:37 | 61.45897 | -44.06547 | 16500 ft | 207 kts | 245° |
| 2026-05-06 16:37 | 61.45270 | -44.09255 | 16498 ft | 207 kts | 245° |
| 2026-05-06 16:37 | 61.44642 | -44.11961 | 16473 ft | 207 kts | 246° |
| 2026-05-06 16:38 | 61.44015 | -44.14671 | 16470 ft | 207 kts | 245° |
| 2026-05-06 16:38 | 61.43387 | -44.17378 | 16475 ft | 207 kts | 246° |
| 2026-05-06 16:38 | 61.42757 | -44.20077 | 16476 ft | 207 kts | 245° |
| 2026-05-06 16:38 | 61.42128 | -44.22772 | 16480 ft | 207 kts | 246° |
| 2026-05-06 16:39 | 61.41498 | -44.25478 | 16473 ft | 207 kts | 243° |
| 2026-05-06 16:39 | 61.40864 | -44.28187 | 16485 ft | 208 kts | 244° |
| 2026-05-06 16:39 | 61.40229 | -44.30906 | 16477 ft | 208 kts | 243° |
| 2026-05-06 16:39 | 61.39590 | -44.33620 | 16473 ft | 209 kts | 243° |
| 2026-05-06 16:40 | 61.38954 | -44.36343 | 16437 ft | 209 kts | 243° |
| 2026-05-06 16:40 | 61.38316 | -44.39061 | 16432 ft | 209 kts | 243° |
| 2026-05-06 16:40 | 61.37676 | -44.41780 | 16443 ft | 209 kts | 243° |
| 2026-05-06 16:40 | 61.37033 | -44.44501 | 16438 ft | 209 kts | 243° |
| 2026-05-06 16:41 | 61.36395 | -44.47213 | 16437 ft | 209 kts | 243° |
| 2026-05-06 16:41 | 61.35755 | -44.49935 | 16436 ft | 209 kts | 243° |
| 2026-05-06 16:41 | 61.35111 | -44.52647 | 16435 ft | 209 kts | 243° |
| 2026-05-06 16:41 | 61.34469 | -44.55363 | 16440 ft | 209 kts | 243° |
| 2026-05-06 16:42 | 61.33826 | -44.58080 | 16433 ft | 209 kts | 243° |
| 2026-05-06 16:42 | 61.33185 | -44.60790 | 16413 ft | 209 kts | 243° |
| 2026-05-06 16:42 | 61.32542 | -44.63501 | 16371 ft | 209 kts | 243° |
| 2026-05-06 16:42 | 61.31895 | -44.66212 | 16371 ft | 209 kts | 243° |
| 2026-05-06 16:43 | 61.31250 | -44.68919 | 16374 ft | 209 kts | 243° |
| 2026-05-06 16:43 | 61.30615 | -44.71590 | 16369 ft | 209 kts | 243° |
| 2026-05-06 16:43 | 61.29970 | -44.74295 | 16369 ft | 209 kts | 243° |
| 2026-05-06 16:43 | 61.29323 | -44.76999 | 16370 ft | 209 kts | 243° |
| 2026-05-06 16:44 | 61.28672 | -44.79705 | 16368 ft | 209 kts | 243° |
| 2026-05-06 16:44 | 61.28026 | -44.82407 | 16369 ft | 209 kts | 243° |
| 2026-05-06 16:44 | 61.27378 | -44.85117 | 16373 ft | 209 kts | 243° |
| 2026-05-06 16:44 | 61.26759 | -44.87847 | 16334 ft | 210 kts | 246° |
| 2026-05-06 16:45 | 61.26225 | -44.90673 | 16330 ft | 210 kts | 246° |
| 2026-05-06 16:45 | 61.25681 | -44.93485 | 16335 ft | 210 kts | 246° |
| 2026-05-06 16:45 | 61.25133 | -44.96301 | 16331 ft | 210 kts | 246° |
| 2026-05-06 16:45 | 61.24588 | -44.99113 | 16338 ft | 210 kts | 246° |
| 2026-05-06 16:46 | 61.24039 | -45.01931 | 16333 ft | 210 kts | 246° |
| 2026-05-06 16:46 | 61.23489 | -45.04751 | 16332 ft | 211 kts | 246° |
| 2026-05-06 16:46 | 61.22938 | -45.07574 | 16342 ft | 212 kts | 246° |
| 2026-05-06 16:46 | 61.22386 | -45.10407 | 16334 ft | 211 kts | 246° |
| 2026-05-06 16:47 | 61.21837 | -45.13219 | 16307 ft | 211 kts | 246° |
| 2026-05-06 16:47 | 61.21260 | -45.16010 | 16288 ft | 210 kts | 240° |
| 2026-05-06 16:47 | 61.20365 | -45.18256 | 15997 ft | 192 kts | 223° |
| 2026-05-06 16:47 | 61.19452 | -45.20147 | 15704 ft | 180 kts | 223° |
| 2026-05-06 16:48 | 61.18596 | -45.21949 | 15410 ft | 172 kts | 222° |
| 2026-05-06 16:48 | 61.17783 | -45.23707 | 15121 ft | 166 kts | 223° |
| 2026-05-06 16:48 | 61.16982 | -45.25390 | 14752 ft | 164 kts | 220° |
| 2026-05-06 16:48 | 61.16082 | -45.26846 | 14387 ft | 165 kts | 211° |
| 2026-05-06 16:49 | 61.15139 | -45.28210 | 14021 ft | 166 kts | 211° |
| 2026-05-06 16:49 | 61.14198 | -45.29595 | 13620 ft | 167 kts | 211° |
| 2026-05-06 16:49 | 61.13249 | -45.30989 | 13219 ft | 167 kts | 211° |
| 2026-05-06 16:49 | 61.12304 | -45.32385 | 12823 ft | 167 kts | 211° |
| 2026-05-06 16:50 | 61.11359 | -45.33794 | 12429 ft | 166 kts | 212° |
| 2026-05-06 16:50 | 61.10423 | -45.35161 | 12040 ft | 164 kts | 212° |
| 2026-05-06 16:50 | 61.09491 | -45.36523 | 11654 ft | 163 kts | 212° |
| 2026-05-06 16:50 | 61.08872 | -45.37392 | 11395 ft | 162 kts | 211° |
| 2026-05-06 16:51 | 61.07634 | -45.39161 | 10908 ft | 160 kts | 211° |
| 2026-05-06 16:51 | 61.06733 | -45.40483 | 10536 ft | 157 kts | 211° |
| 2026-05-06 16:51 | 61.05850 | -45.41793 | 10163 ft | 155 kts | 211° |
| 2026-05-06 16:51 | 61.04978 | -45.43082 | 9759 ft | 154 kts | 212° |
| 2026-05-06 16:52 | 61.04109 | -45.44355 | 9350 ft | 152 kts | 211° |
| 2026-05-06 16:52 | 61.03248 | -45.45625 | 8950 ft | 152 kts | 211° |
| 2026-05-06 16:52 | 61.02388 | -45.46875 | 8551 ft | 151 kts | 211° |
| 2026-05-06 16:52 | 61.01530 | -45.48104 | 8139 ft | 151 kts | 210° |
| 2026-05-06 16:53 | 61.00665 | -45.49375 | 7680 ft | 154 kts | 212° |
| 2026-05-06 16:53 | 60.99898 | -45.50933 | 7224 ft | 158 kts | 231° |
| 2026-05-06 16:53 | 60.99363 | -45.52937 | 6776 ft | 160 kts | 237° |
| 2026-05-06 16:53 | 60.98861 | -45.54943 | 6314 ft | 161 kts | 248° |
| 2026-05-06 16:54 | 60.98885 | -45.57237 | 5814 ft | 166 kts | 293° |
| 2026-05-06 16:54 | 60.99577 | -45.59145 | 5346 ft | 165 kts | 313° |
| 2026-05-06 16:54 | 61.00311 | -45.60919 | 5077 ft | 154 kts | 312° |
| 2026-05-06 16:54 | 61.00938 | -45.62462 | 5055 ft | 133 kts | 311° |
| 2026-05-06 16:55 | 61.01491 | -45.63824 | 5047 ft | 115 kts | 312° |
| 2026-05-06 16:55 | 61.01962 | -45.65033 | 5054 ft | 101 kts | 311° |
| 2026-05-06 16:55 | 61.02403 | -45.66041 | 5018 ft | 94 kts | 334° |
| 2026-05-06 16:55 | 61.03007 | -45.65961 | 5067 ft | 91 kts | 24° |
| 2026-05-06 16:56 | 61.03544 | -45.65145 | 4901 ft | 110 kts | 55° |
| 2026-05-06 16:56 | 61.04090 | -45.63764 | 4514 ft | 136 kts | 51° |
| 2026-05-06 16:56 | 61.04757 | -45.62248 | 4192 ft | 144 kts | 49° |
| 2026-05-06 16:56 | 61.05464 | -45.60719 | 4186 ft | 155 kts | 47° |
| 2026-05-06 16:57 | 61.06238 | -45.59054 | 4177 ft | 164 kts | 48° |
| 2026-05-06 16:57 | 61.07036 | -45.57306 | 4174 ft | 169 kts | 49° |
| 2026-05-06 16:57 | 61.07856 | -45.55518 | 4180 ft | 173 kts | 49° |
| 2026-05-06 16:57 | 61.08683 | -45.53707 | 4175 ft | 174 kts | 49° |
| 2026-05-06 16:58 | 61.09518 | -45.51893 | 4172 ft | 174 kts | 48° |
| 2026-05-06 16:58 | 61.10197 | -45.49843 | 4070 ft | 177 kts | 72° |
| 2026-05-06 16:58 | 61.10128 | -45.47445 | 3887 ft | 163 kts | 109° |
| 2026-05-06 16:58 | 61.09430 | -45.45582 | 3557 ft | 172 kts | 140° |
| 2026-05-06 16:59 | 61.08714 | -45.44855 | 3469 ft | 176 kts | 160° |
| 2026-05-06 16:59 | 61.07498 | -45.44862 | 3429 ft | 179 kts | 193° |
| 2026-05-06 16:59 | 61.06227 | -45.46896 | 3446 ft | 180 kts | 239° |
| 2026-05-06 16:59 | 61.06060 | -45.48559 | 3381 ft | 182 kts | 274° |
| 2026-05-06 17:00 | 61.06672 | -45.50790 | 3219 ft | 183 kts | 321° |
| 2026-05-06 17:00 | 61.07804 | -45.51766 | 3173 ft | 178 kts | 355° |
| 2026-05-06 17:00 | 61.08992 | -45.51531 | 3228 ft | 168 kts | 16° |
| 2026-05-06 17:00 | 61.10068 | -45.50871 | 3018 ft | 145 kts | 26° |
| 2026-05-06 17:01 | 61.10939 | -45.50012 | 2311 ft | 139 kts | 32° |
| 2026-05-06 17:01 | 61.11716 | -45.49144 | 1600 ft | 116 kts | 31° |
| 2026-05-06 17:01 | 61.12418 | -45.48426 | 960 ft | 110 kts | 31° |
| 2026-05-06 17:01 | 61.13017 | -45.47647 | 601 ft | 92 kts | 37° |
| 2026-05-06 17:02 | 61.13554 | -45.46927 | 531 ft | 99 kts | 40° |
| 2026-05-06 17:02 | 61.14116 | -45.46017 | 550 ft | 103 kts | 43° |
| 2026-05-06 17:02 | 61.14702 | -45.44996 | 282 ft | 115 kts | 45° |
| 2026-05-06 17:02 | 61.15315 | -45.43954 | 89 ft | 106 kts | 46° |
| 2026-05-06 17:03 | 61.15774 | -45.43100 | 55 ft | 71 kts | 48° |
| 2026-05-06 17:03 | 61.15984 | -45.42670 | 63 ft | 14 kts | 32° |
| 2026-05-06 17:03 | 61.16069 | -45.42556 | 67 ft | 15 kts | 41° |
| 2026-05-06 17:03 | 61.16145 | -45.42435 | 67 ft | 13 kts | 34° |
| 2026-05-06 17:04 | 61.16215 | -45.42323 | 73 ft | 12 kts | 29° |
| 2026-05-06 17:04 | 61.16279 | -45.42211 | 77 ft | 12 kts | 39° |
| 2026-05-06 17:04 | 61.16322 | -45.42100 | 81 ft | 8 kts | 113° |
| 2026-05-06 17:04 | 61.16292 | -45.42023 | 79 ft | 7 kts | 134° |
| 2026-05-06 17:05 | 61.16256 | -45.41938 | 83 ft | 8 kts | 134° |
| 2026-05-06 17:05 | 61.16219 | -45.41835 | 81 ft | 7 kts | 99° |
| 2026-05-06 17:05 | 61.16243 | -45.41774 | 82 ft | 8 kts | 38° |
| 2026-05-06 17:05 | 61.16303 | -45.41730 | 79 ft | 11 kts | 348° |
| 2026-05-06 17:06 | 61.16352 | -45.41686 | 79 ft | 1 kts | 39° |
| 2026-05-06 17:06 | 61.16359 | -45.41675 | 79 ft | 0 kts | 36° |
| 2026-05-06 17:06 | 61.16359 | -45.41676 | 79 ft | 0 kts | 36° |